createdAt,value
2017-03-26T10:20:22.765Z,3335
2017-03-26T10:21:26.861Z,3340
2017-03-26T10:22:31.002Z,3385
2017-03-26T10:23:35.334Z,3360
2017-03-26T10:24:39.647Z,2995
2017-03-26T10:25:42.484Z,3360
2017-03-26T10:26:47.204Z,3410
2017-03-26T10:27:50.932Z,3420
2017-03-26T10:28:54.582Z,3395
2017-03-26T10:29:58.628Z,3320
2017-03-26T10:31:07.236Z,2540
2017-03-26T10:32:09.924Z,1685
2017-03-26T10:33:13.377Z,420
2017-03-26T10:34:21.867Z,185
2017-03-26T10:35:25.767Z,340
2017-03-26T10:36:28.409Z,305
2017-03-26T10:37:31.618Z,285
2017-03-26T10:38:35.348Z,300
2017-03-26T10:39:38.496Z,3110
2017-03-26T10:40:43.889Z,3500
2017-03-26T10:41:47.673Z,3830
2017-03-26T10:42:54.039Z,3920
2017-03-26T10:44:00.730Z,3935
2017-03-26T10:45:04.236Z,3800
2017-03-26T10:46:06.115Z,3560
2017-03-26T10:47:11.205Z,3155
2017-03-26T10:48:16.481Z,2995
2017-03-26T10:49:21.113Z,2890
2017-03-26T10:50:25.631Z,2395
2017-03-26T10:51:30.083Z,2360
2017-03-26T10:52:32.798Z,2690
2017-03-26T10:53:37.035Z,3070
2017-03-26T10:54:41.552Z,3325
2017-03-26T10:55:46.243Z,3645
2017-03-26T10:56:50.892Z,3640
2017-03-26T10:57:55.554Z,3745
2017-03-26T10:59:00.031Z,3715
2017-03-26T11:00:04.292Z,3640
2017-03-26T11:01:09.037Z,3645
2017-03-26T11:02:13.682Z,3575
2017-03-26T11:03:18.130Z,3480
2017-03-26T11:04:23.040Z,1710
2017-03-26T11:05:27.276Z,525
2017-03-26T11:06:31.647Z,520
2017-03-26T11:07:36.285Z,525
2017-03-26T11:08:40.013Z,550
2017-03-26T11:09:44.359Z,605
2017-03-26T11:10:48.916Z,600
2017-03-26T11:11:53.281Z,660
2017-03-26T11:12:58.988Z,695
2017-03-26T11:14:02.008Z,595
2017-03-26T11:15:11.561Z,600
2017-03-26T11:16:15.638Z,650
2017-03-26T11:17:20.268Z,960
2017-03-26T11:18:23.359Z,2525
2017-03-26T11:19:26.383Z,2245
2017-03-26T11:20:29.285Z,3205
2017-03-26T11:21:33.622Z,2710
2017-03-26T11:22:38.736Z,2665
2017-03-26T11:23:42.254Z,2770
2017-03-26T11:24:45.777Z,3060
2017-03-26T11:25:50.251Z,3305
2017-03-26T11:26:55.011Z,3520
2017-03-26T11:27:57.677Z,3480
2017-03-26T11:29:03.988Z,3570
